sensor_id;sensor_type;location;lat;lon;timestamp;pressure;altitude;pressure_sealevel;temperature;humidity
69198;BME280;56311;50.298;8.514;2023-06-22T00:00:00;97810.0;;;21.0;81.9
69198;BME280;56311;50.298;8.514;2023-06-22T00:02:00;97830.0;;;21.0;82.5
69198;BME280;56311;50.298;8.514;2023-06-22T00:04:00;97840.0;;;20.9;83.3
69198;BME280;56311;50.298;8.514;2023-06-22T00:06:01;97850.0;;;20.8;83.6
69198;BME280;56311;50.298;8.514;2023-06-22T00:08:03;97850.0;;;20.9;83.0
69198;BME280;56311;50.298;8.514;2023-06-22T00:10:00;97860.0;;;21.0;82.8
69198;BME280;56311;50.298;8.514;2023-06-22T00:12:00;97860.0;;;21.0;82.8
69198;BME280;56311;50.298;8.514;2023-06-22T00:14:00;97860.0;;;21.0;83.2
69198;BME280;56311;50.298;8.514;2023-06-22T00:16:00;97870.0;;;21.0;83.0
69198;BME280;56311;50.298;8.514;2023-06-22T00:18:00;97880.0;;;21.1;82.6
69198;BME280;56311;50.298;8.514;2023-06-22T00:20:00;97880.0;;;21.2;82.2
69198;BME280;56311;50.298;8.514;2023-06-22T00:22:00;97880.0;;;21.3;82.2
69198;BME280;56311;50.298;8.514;2023-06-22T00:24:00;97890.0;;;21.3;81.5
69198;BME280;56311;50.298;8.514;2023-06-22T00:26:00;97900.0;;;21.3;81.0
69198;BME280;56311;50.298;8.514;2023-06-22T00:28:01;97900.0;;;21.1;81.3
69198;BME280;56311;50.298;8.514;2023-06-22T00:30:00;97920.0;;;21.2;81.1
69198;BME280;56311;50.298;8.514;2023-06-22T00:32:00;97920.0;;;20.8;81.6
69198;BME280;56311;50.298;8.514;2023-06-22T00:34:00;97930.0;;;20.9;82.5
69198;BME280;56311;50.298;8.514;2023-06-22T00:36:00;97940.0;;;21.0;82.1
69198;BME280;56311;50.298;8.514;2023-06-22T00:38:00;97940.0;;;21.0;81.9
69198;BME280;56311;50.298;8.514;2023-06-22T00:40:00;97940.0;;;21.2;81.4
69198;BME280;56311;50.298;8.514;2023-06-22T00:42:00;97940.0;;;21.2;81.2
69198;BME280;56311;50.298;8.514;2023-06-22T00:44:00;97940.0;;;21.2;82.3
69198;BME280;56311;50.298;8.514;2023-06-22T00:46:00;97940.0;;;21.0;83.2
69198;BME280;56311;50.298;8.514;2023-06-22T00:48:00;97940.0;;;21.0;83.8
69198;BME280;56311;50.298;8.514;2023-06-22T00:50:00;97940.0;;;21.0;86.3
69198;BME280;56311;50.298;8.514;2023-06-22T00:52:00;97940.0;;;21.0;88.3
69198;BME280;56311;50.298;8.514;2023-06-22T00:54:00;97940.0;;;21.1;89.2
69198;BME280;56311;50.298;8.514;2023-06-22T00:56:00;97940.0;;;21.1;90.3
69198;BME280;56311;50.298;8.514;2023-06-22T00:58:01;97950.0;;;21.2;91.0
69198;BME280;56311;50.298;8.514;2023-06-22T01:00:00;97960.0;;;21.1;89.8
69198;BME280;56311;50.298;8.514;2023-06-22T01:02:00;97960.0;;;20.9;89.5
69198;BME280;56311;50.298;8.514;2023-06-22T01:04:00;97970.0;;;21.0;90.6
69198;BME280;56311;50.298;8.514;2023-06-22T01:06:06;97970.0;;;20.9;91.7
69198;BME280;56311;50.298;8.514;2023-06-22T01:08:06;97970.0;;;20.8;92.1
69198;BME280;56311;50.298;8.514;2023-06-22T01:10:05;97980.0;;;20.7;97.5
69198;BME280;56311;50.298;8.514;2023-06-22T01:12:02;97980.0;;;20.7;100.0
69198;BME280;56311;50.298;8.514;2023-06-22T01:14:05;97990.0;;;20.6;100.0
69198;BME280;56311;50.298;8.514;2023-06-22T01:16:02;98000.0;;;20.6;100.0
69198;BME280;56311;50.298;8.514;2023-06-22T01:18:03;98010.0;;;20.7;100.0
69198;BME280;56311;50.298;8.514;2023-06-22T01:20:02;98010.0;;;20.6;100.0
69198;BME280;56311;50.298;8.514;2023-06-22T01:22:00;98010.0;;;20.7;100.0
69198;BME280;56311;50.298;8.514;2023-06-22T01:24:10;98010.0;;;20.6;100.0
69198;BME280;56311;50.298;8.514;2023-06-22T01:26:05;98010.0;;;20.4;100.0
69198;BME280;56311;50.298;8.514;2023-06-22T01:28:08;98020.0;;;20.4;100.0
69198;BME280;56311;50.298;8.514;2023-06-22T01:30:02;98010.0;;;20.4;100.0
69198;BME280;56311;50.298;8.514;2023-06-22T01:32:02;98000.0;;;20.4;100.0
69198;BME280;56311;50.298;8.514;2023-06-22T01:34:03;97990.0;;;20.3;100.0
69198;BME280;56311;50.298;8.514;2023-06-22T01:36:00;97970.0;;;20.5;100.0
69198;BME280;56311;50.298;8.514;2023-06-22T01:38:00;97950.0;;;20.4;100.0
69198;BME280;56311;50.298;8.514;2023-06-22T01:40:01;97930.0;;;20.4;100.0
69198;BME280;56311;50.298;8.514;2023-06-22T01:42:01;97920.0;;;20.4;100.0
69198;BME280;56311;50.298;8.514;2023-06-22T01:44:00;97910.0;;;20.3;100.0
69198;BME280;56311;50.298;8.514;2023-06-22T01:46:01;97920.0;;;20.3;100.0
69198;BME280;56311;50.298;8.514;2023-06-22T01:48:00;97910.0;;;20.3;100.0
69198;BME280;56311;50.298;8.514;2023-06-22T01:50:00;97910.0;;;20.3;100.0
69198;BME280;56311;50.298;8.514;2023-06-22T01:52:00;97910.0;;;20.3;100.0
69198;BME280;56311;50.298;8.514;2023-06-22T01:54:01;97910.0;;;20.2;100.0
69198;BME280;56311;50.298;8.514;2023-06-22T01:56:00;97910.0;;;20.0;100.0
69198;BME280;56311;50.298;8.514;2023-06-22T01:58:00;97910.0;;;19.9;100.0
69198;BME280;56311;50.298;8.514;2023-06-22T02:00:02;97910.0;;;20.0;100.0
69198;BME280;56311;50.298;8.514;2023-06-22T02:02:02;97920.0;;;20.0;100.0
69198;BME280;56311;50.298;8.514;2023-06-22T02:04:03;97920.0;;;20.0;100.0
69198;BME280;56311;50.298;8.514;2023-06-22T02:06:04;97930.0;;;20.0;100.0
69198;BME280;56311;50.298;8.514;2023-06-22T02:08:08;97940.0;;;20.0;100.0
69198;BME280;56311;50.298;8.514;2023-06-22T02:10:02;97940.0;;;19.8;100.0
69198;BME280;56311;50.298;8.514;2023-06-22T02:12:02;97940.0;;;19.8;100.0
69198;BME280;56311;50.298;8.514;2023-06-22T02:14:00;97940.0;;;19.7;100.0
69198;BME280;56311;50.298;8.514;2023-06-22T02:16:00;97930.0;;;19.8;100.0
69198;BME280;56311;50.298;8.514;2023-06-22T02:18:00;97920.0;;;20.0;100.0
69198;BME280;56311;50.298;8.514;2023-06-22T02:20:01;97900.0;;;20.0;100.0
69198;BME280;56311;50.298;8.514;2023-06-22T02:22:00;97880.0;;;20.1;100.0
69198;BME280;56311;50.298;8.514;2023-06-22T02:24:00;97860.0;;;20.1;100.0
69198;BME280;56311;50.298;8.514;2023-06-22T02:26:01;97860.0;;;20.0;100.0
69198;BME280;56311;50.298;8.514;2023-06-22T02:28:00;97860.0;;;19.9;100.0
69198;BME280;56311;50.298;8.514;2023-06-22T02:30:01;97870.0;;;20.0;100.0
69198;BME280;56311;50.298;8.514;2023-06-22T02:32:00;97870.0;;;19.8;100.0
69198;BME280;56311;50.298;8.514;2023-06-22T02:34:00;97890.0;;;19.7;100.0
69198;BME280;56311;50.298;8.514;2023-06-22T02:36:00;97900.0;;;19.8;100.0
69198;BME280;56311;50.298;8.514;2023-06-22T02:38:02;97900.0;;;19.8;100.0
69198;BME280;56311;50.298;8.514;2023-06-22T02:40:00;97900.0;;;19.8;100.0
69198;BME280;56311;50.298;8.514;2023-06-22T02:42:00;97900.0;;;19.9;100.0
69198;BME280;56311;50.298;8.514;2023-06-22T02:44:00;97900.0;;;20.0;100.0
69198;BME280;56311;50.298;8.514;2023-06-22T02:46:00;97900.0;;;20.0;100.0
69198;BME280;56311;50.298;8.514;2023-06-22T02:48:00;97910.0;;;20.0;100.0
69198;BME280;56311;50.298;8.514;2023-06-22T02:50:00;97920.0;;;20.0;100.0
69198;BME280;56311;50.298;8.514;2023-06-22T02:52:00;97920.0;;;20.0;100.0
69198;BME280;56311;50.298;8.514;2023-06-22T02:54:00;97910.0;;;19.9;100.0
69198;BME280;56311;50.298;8.514;2023-06-22T02:56:01;97900.0;;;20.0;100.0
69198;BME280;56311;50.298;8.514;2023-06-22T02:58:00;97880.0;;;19.9;100.0
69198;BME280;56311;50.298;8.514;2023-06-22T03:00:02;97870.0;;;20.0;100.0
69198;BME280;56311;50.298;8.514;2023-06-22T03:02:00;97870.0;;;20.1;100.0
69198;BME280;56311;50.298;8.514;2023-06-22T03:04:00;97870.0;;;20.0;100.0
69198;BME280;56311;50.298;8.514;2023-06-22T03:06:00;97870.0;;;19.8;100.0
69198;BME280;56311;50.298;8.514;2023-06-22T03:08:00;97870.0;;;19.8;100.0
69198;BME280;56311;50.298;8.514;2023-06-22T03:10:00;97880.0;;;19.9;100.0
69198;BME280;56311;50.298;8.514;2023-06-22T03:12:00;97870.0;;;19.9;100.0
69198;BME280;56311;50.298;8.514;2023-06-22T03:14:01;97870.0;;;19.8;100.0
69198;BME280;56311;50.298;8.514;2023-06-22T03:16:00;97870.0;;;19.6;100.0
69198;BME280;56311;50.298;8.514;2023-06-22T03:18:00;97870.0;;;19.6;100.0
69198;BME280;56311;50.298;8.514;2023-06-22T03:20:00;97870.0;;;19.5;100.0
69198;BME280;56311;50.298;8.514;2023-06-22T03:22:00;97860.0;;;19.5;100.0
69198;BME280;56311;50.298;8.514;2023-06-22T03:24:00;97860.0;;;19.6;100.0
69198;BME280;56311;50.298;8.514;2023-06-22T03:26:00;97860.0;;;19.5;100.0
69198;BME280;56311;50.298;8.514;2023-06-22T03:28:00;97850.0;;;19.5;100.0
69198;BME280;56311;50.298;8.514;2023-06-22T03:30:00;97840.0;;;19.5;100.0
69198;BME280;56311;50.298;8.514;2023-06-22T03:32:00;97850.0;;;19.5;100.0
69198;BME280;56311;50.298;8.514;2023-06-22T03:34:00;97850.0;;;19.6;100.0
69198;BME280;56311;50.298;8.514;2023-06-22T03:36:00;97850.0;;;19.7;100.0
69198;BME280;56311;50.298;8.514;2023-06-22T03:38:00;97850.0;;;19.6;100.0
69198;BME280;56311;50.298;8.514;2023-06-22T03:40:00;97850.0;;;19.7;100.0
69198;BME280;56311;50.298;8.514;2023-06-22T03:42:00;97850.0;;;19.7;100.0
69198;BME280;56311;50.298;8.514;2023-06-22T03:44:00;97850.0;;;19.6;100.0
69198;BME280;56311;50.298;8.514;2023-06-22T03:46:00;97850.0;;;19.7;100.0
69198;BME280;56311;50.298;8.514;2023-06-22T03:48:00;97850.0;;;19.6;100.0
69198;BME280;56311;50.298;8.514;2023-06-22T03:50:00;97840.0;;;19.7;100.0
69198;BME280;56311;50.298;8.514;2023-06-22T03:52:00;97840.0;;;19.8;100.0
69198;BME280;56311;50.298;8.514;2023-06-22T03:54:00;97840.0;;;19.7;100.0
69198;BME280;56311;50.298;8.514;2023-06-22T03:56:00;97840.0;;;19.7;100.0
69198;BME280;56311;50.298;8.514;2023-06-22T03:58:00;97850.0;;;19.6;100.0
69198;BME280;56311;50.298;8.514;2023-06-22T04:00:00;97850.0;;;19.6;100.0
69198;BME280;56311;50.298;8.514;2023-06-22T04:02:00;97850.0;;;19.7;100.0
69198;BME280;56311;50.298;8.514;2023-06-22T04:04:00;97850.0;;;19.7;100.0
69198;BME280;56311;50.298;8.514;2023-06-22T04:06:00;97850.0;;;19.8;100.0
69198;BME280;56311;50.298;8.514;2023-06-22T04:08:00;97850.0;;;19.9;100.0
69198;BME280;56311;50.298;8.514;2023-06-22T04:10:00;97850.0;;;19.9;100.0
69198;BME280;56311;50.298;8.514;2023-06-22T04:12:00;97850.0;;;20.0;100.0
69198;BME280;56311;50.298;8.514;2023-06-22T04:14:00;97850.0;;;20.0;100.0
69198;BME280;56311;50.298;8.514;2023-06-22T04:16:00;97850.0;;;19.9;100.0
69198;BME280;56311;50.298;8.514;2023-06-22T04:18:00;97860.0;;;19.9;100.0
69198;BME280;56311;50.298;8.514;2023-06-22T04:20:00;97860.0;;;20.0;100.0
69198;BME280;56311;50.298;8.514;2023-06-22T04:22:00;97860.0;;;19.9;100.0
69198;BME280;56311;50.298;8.514;2023-06-22T04:24:00;97860.0;;;20.0;100.0
69198;BME280;56311;50.298;8.514;2023-06-22T04:26:00;97860.0;;;20.1;100.0
69198;BME280;56311;50.298;8.514;2023-06-22T04:28:00;97860.0;;;20.2;100.0
69198;BME280;56311;50.298;8.514;2023-06-22T04:30:01;97850.0;;;20.1;100.0
69198;BME280;56311;50.298;8.514;2023-06-22T04:32:00;97850.0;;;20.1;100.0
69198;BME280;56311;50.298;8.514;2023-06-22T04:34:00;97850.0;;;20.2;100.0
69198;BME280;56311;50.298;8.514;2023-06-22T04:36:00;97860.0;;;20.2;100.0
69198;BME280;56311;50.298;8.514;2023-06-22T04:38:00;97860.0;;;20.2;100.0
69198;BME280;56311;50.298;8.514;2023-06-22T04:40:00;97860.0;;;20.2;100.0
69198;BME280;56311;50.298;8.514;2023-06-22T04:42:00;97860.0;;;20.2;100.0
69198;BME280;56311;50.298;8.514;2023-06-22T04:44:00;97870.0;;;20.3;100.0
69198;BME280;56311;50.298;8.514;2023-06-22T04:46:00;97870.0;;;20.2;100.0
69198;BME280;56311;50.298;8.514;2023-06-22T04:48:00;97870.0;;;20.2;100.0
69198;BME280;56311;50.298;8.514;2023-06-22T04:50:00;97870.0;;;20.3;100.0
69198;BME280;56311;50.298;8.514;2023-06-22T04:52:01;97880.0;;;20.2;100.0
69198;BME280;56311;50.298;8.514;2023-06-22T04:54:00;97880.0;;;20.0;100.0
69198;BME280;56311;50.298;8.514;2023-06-22T04:56:00;97880.0;;;20.1;100.0
69198;BME280;56311;50.298;8.514;2023-06-22T04:58:00;97870.0;;;20.1;100.0
69198;BME280;56311;50.298;8.514;2023-06-22T05:00:01;97880.0;;;20.1;100.0
69198;BME280;56311;50.298;8.514;2023-06-22T05:02:01;97880.0;;;20.1;100.0
69198;BME280;56311;50.298;8.514;2023-06-22T05:04:00;97880.0;;;20.1;100.0
69198;BME280;56311;50.298;8.514;2023-06-22T05:06:00;97870.0;;;20.1;100.0
69198;BME280;56311;50.298;8.514;2023-06-22T05:08:00;97870.0;;;20.1;100.0
69198;BME280;56311;50.298;8.514;2023-06-22T05:10:00;97870.0;;;20.2;100.0
69198;BME280;56311;50.298;8.514;2023-06-22T05:12:00;97870.0;;;20.2;100.0
69198;BME280;56311;50.298;8.514;2023-06-22T05:14:00;97870.0;;;20.3;100.0
69198;BME280;56311;50.298;8.514;2023-06-22T05:16:00;97870.0;;;20.4;100.0
69198;BME280;56311;50.298;8.514;2023-06-22T05:18:00;97860.0;;;20.5;100.0
69198;BME280;56311;50.298;8.514;2023-06-22T05:20:01;97860.0;;;20.5;100.0
69198;BME280;56311;50.298;8.514;2023-06-22T05:22:00;97860.0;;;20.6;100.0
69198;BME280;56311;50.298;8.514;2023-06-22T05:24:00;97850.0;;;20.7;100.0
69198;BME280;56311;50.298;8.514;2023-06-22T05:26:00;97860.0;;;20.7;100.0
69198;BME280;56311;50.298;8.514;2023-06-22T05:28:00;97860.0;;;20.7;100.0
69198;BME280;56311;50.298;8.514;2023-06-22T05:30:00;97870.0;;;20.8;100.0
69198;BME280;56311;50.298;8.514;2023-06-22T05:32:00;97870.0;;;20.8;100.0
69198;BME280;56311;50.298;8.514;2023-06-22T05:34:00;97870.0;;;20.8;100.0
69198;BME280;56311;50.298;8.514;2023-06-22T05:36:00;97860.0;;;20.9;100.0
69198;BME280;56311;50.298;8.514;2023-06-22T05:38:00;97860.0;;;20.9;100.0
69198;BME280;56311;50.298;8.514;2023-06-22T05:40:00;97860.0;;;20.9;100.0
69198;BME280;56311;50.298;8.514;2023-06-22T05:42:00;97860.0;;;20.9;100.0
69198;BME280;56311;50.298;8.514;2023-06-22T05:44:00;97870.0;;;21.0;100.0
69198;BME280;56311;50.298;8.514;2023-06-22T05:46:01;97860.0;;;21.0;100.0
69198;BME280;56311;50.298;8.514;2023-06-22T05:48:00;97860.0;;;21.0;100.0
69198;BME280;56311;50.298;8.514;2023-06-22T05:50:00;97850.0;;;21.1;100.0
69198;BME280;56311;50.298;8.514;2023-06-22T05:52:00;97850.0;;;21.1;100.0
69198;BME280;56311;50.298;8.514;2023-06-22T05:54:00;97850.0;;;21.1;100.0
69198;BME280;56311;50.298;8.514;2023-06-22T05:56:00;97840.0;;;21.2;100.0
69198;BME280;56311;50.298;8.514;2023-06-22T05:58:00;97850.0;;;21.3;100.0
69198;BME280;56311;50.298;8.514;2023-06-22T06:00:00;97840.0;;;21.2;100.0
69198;BME280;56311;50.298;8.514;2023-06-22T06:02:00;97850.0;;;21.2;100.0
69198;BME280;56311;50.298;8.514;2023-06-22T06:04:00;97850.0;;;21.2;100.0
69198;BME280;56311;50.298;8.514;2023-06-22T06:06:00;97860.0;;;21.3;100.0
69198;BME280;56311;50.298;8.514;2023-06-22T06:08:00;97850.0;;;21.4;100.0
69198;BME280;56311;50.298;8.514;2023-06-22T06:10:00;97850.0;;;21.6;100.0
69198;BME280;56311;50.298;8.514;2023-06-22T06:12:00;97850.0;;;21.5;100.0
69198;BME280;56311;50.298;8.514;2023-06-22T06:14:00;97850.0;;;21.7;100.0
69198;BME280;56311;50.298;8.514;2023-06-22T06:16:00;97850.0;;;21.6;100.0
69198;BME280;56311;50.298;8.514;2023-06-22T06:18:00;97860.0;;;21.5;100.0
69198;BME280;56311;50.298;8.514;2023-06-22T06:20:01;97860.0;;;21.7;100.0
69198;BME280;56311;50.298;8.514;2023-06-22T06:22:00;97850.0;;;21.8;100.0
69198;BME280;56311;50.298;8.514;2023-06-22T06:24:00;97850.0;;;21.9;100.0
69198;BME280;56311;50.298;8.514;2023-06-22T06:26:00;97850.0;;;21.9;100.0
69198;BME280;56311;50.298;8.514;2023-06-22T06:28:00;97850.0;;;21.8;100.0
69198;BME280;56311;50.298;8.514;2023-06-22T06:30:00;97860.0;;;22.2;100.0
69198;BME280;56311;50.298;8.514;2023-06-22T06:32:00;97860.0;;;22.3;100.0
69198;BME280;56311;50.298;8.514;2023-06-22T06:34:00;97860.0;;;22.4;100.0
69198;BME280;56311;50.298;8.514;2023-06-22T06:36:00;97860.0;;;22.4;100.0
69198;BME280;56311;50.298;8.514;2023-06-22T06:38:00;97850.0;;;22.4;100.0
69198;BME280;56311;50.298;8.514;2023-06-22T06:40:00;97850.0;;;22.6;100.0
69198;BME280;56311;50.298;8.514;2023-06-22T06:42:00;97850.0;;;22.6;100.0
69198;BME280;56311;50.298;8.514;2023-06-22T06:44:00;97850.0;;;22.7;100.0
69198;BME280;56311;50.298;8.514;2023-06-22T06:46:00;97850.0;;;22.8;100.0
69198;BME280;56311;50.298;8.514;2023-06-22T06:48:00;97850.0;;;22.9;100.0
69198;BME280;56311;50.298;8.514;2023-06-22T06:50:00;97850.0;;;23.0;99.9
69198;BME280;56311;50.298;8.514;2023-06-22T06:52:00;97850.0;;;23.0;98.7
69198;BME280;56311;50.298;8.514;2023-06-22T06:54:01;97850.0;;;23.0;98.1
69198;BME280;56311;50.298;8.514;2023-06-22T06:56:00;97840.0;;;22.8;100.0
69198;BME280;56311;50.298;8.514;2023-06-22T06:58:01;97830.0;;;23.0;99.5
69198;BME280;56311;50.298;8.514;2023-06-22T07:00:00;97830.0;;;22.9;99.6
69198;BME280;56311;50.298;8.514;2023-06-22T07:02:00;97830.0;;;22.9;100.0
69198;BME280;56311;50.298;8.514;2023-06-22T07:04:00;97840.0;;;23.1;100.0
69198;BME280;56311;50.298;8.514;2023-06-22T07:06:00;97830.0;;;23.1;100.0
69198;BME280;56311;50.298;8.514;2023-06-22T07:08:00;97830.0;;;23.1;100.0
69198;BME280;56311;50.298;8.514;2023-06-22T07:10:00;97840.0;;;23.4;100.0
69198;BME280;56311;50.298;8.514;2023-06-22T07:12:00;97840.0;;;23.1;99.4
69198;BME280;56311;50.298;8.514;2023-06-22T07:14:00;97840.0;;;23.2;98.8
69198;BME280;56311;50.298;8.514;2023-06-22T07:16:00;97840.0;;;23.2;99.3
69198;BME280;56311;50.298;8.514;2023-06-22T07:18:00;97840.0;;;23.2;100.0
69198;BME280;56311;50.298;8.514;2023-06-22T07:20:00;97830.0;;;23.4;99.9
69198;BME280;56311;50.298;8.514;2023-06-22T07:22:00;97830.0;;;23.5;99.6
69198;BME280;56311;50.298;8.514;2023-06-22T07:24:00;97820.0;;;23.7;97.5
69198;BME280;56311;50.298;8.514;2023-06-22T07:26:00;97830.0;;;23.8;96.3
69198;BME280;56311;50.298;8.514;2023-06-22T07:28:02;97830.0;;;24.0;95.2
69198;BME280;56311;50.298;8.514;2023-06-22T07:30:00;97830.0;;;24.2;96.7
69198;BME280;56311;50.298;8.514;2023-06-22T07:32:00;97830.0;;;24.4;94.5
69198;BME280;56311;50.298;8.514;2023-06-22T07:34:00;97830.0;;;24.4;91.9
69198;BME280;56311;50.298;8.514;2023-06-22T07:36:00;97830.0;;;24.3;92.6
69198;BME280;56311;50.298;8.514;2023-06-22T07:38:00;97830.0;;;24.4;93.5
69198;BME280;56311;50.298;8.514;2023-06-22T07:40:00;97830.0;;;24.4;91.5
69198;BME280;56311;50.298;8.514;2023-06-22T07:42:00;97820.0;;;24.4;92.0
69198;BME280;56311;50.298;8.514;2023-06-22T07:44:00;97820.0;;;24.6;90.8
69198;BME280;56311;50.298;8.514;2023-06-22T07:46:00;97830.0;;;24.9;91.1
69198;BME280;56311;50.298;8.514;2023-06-22T07:48:00;97820.0;;;25.0;91.3
69198;BME280;56311;50.298;8.514;2023-06-22T07:50:01;97810.0;;;25.1;89.4
69198;BME280;56311;50.298;8.514;2023-06-22T07:52:00;97810.0;;;25.2;89.3
69198;BME280;56311;50.298;8.514;2023-06-22T07:54:00;97810.0;;;25.1;87.8
69198;BME280;56311;50.298;8.514;2023-06-22T07:56:00;97800.0;;;25.1;89.4
69198;BME280;56311;50.298;8.514;2023-06-22T07:58:00;97800.0;;;25.4;89.1
69198;BME280;56311;50.298;8.514;2023-06-22T08:00:00;97790.0;;;25.4;86.2
69198;BME280;56311;50.298;8.514;2023-06-22T08:02:00;97790.0;;;25.4;87.1
69198;BME280;56311;50.298;8.514;2023-06-22T08:04:00;97790.0;;;25.4;87.4
69198;BME280;56311;50.298;8.514;2023-06-22T08:06:00;97790.0;;;25.3;87.0
69198;BME280;56311;50.298;8.514;2023-06-22T08:08:00;97790.0;;;25.5;85.5
69198;BME280;56311;50.298;8.514;2023-06-22T08:10:00;97790.0;;;25.6;85.8
69198;BME280;56311;50.298;8.514;2023-06-22T08:12:00;97780.0;;;25.5;85.6
69198;BME280;56311;50.298;8.514;2023-06-22T08:14:00;97780.0;;;25.7;85.5
69198;BME280;56311;50.298;8.514;2023-06-22T08:16:00;97780.0;;;25.9;84.8
69198;BME280;56311;50.298;8.514;2023-06-22T08:18:00;97780.0;;;25.8;85.2
69198;BME280;56311;50.298;8.514;2023-06-22T08:20:00;97770.0;;;26.0;86.5
69198;BME280;56311;50.298;8.514;2023-06-22T08:22:00;97770.0;;;26.0;84.9
69198;BME280;56311;50.298;8.514;2023-06-22T08:24:00;97780.0;;;26.3;84.0
69198;BME280;56311;50.298;8.514;2023-06-22T08:26:00;97770.0;;;26.5;82.9
69198;BME280;56311;50.298;8.514;2023-06-22T08:28:01;97770.0;;;26.7;81.9
69198;BME280;56311;50.298;8.514;2023-06-22T08:30:01;97760.0;;;26.8;81.1
69198;BME280;56311;50.298;8.514;2023-06-22T08:32:00;97760.0;;;26.8;78.8
69198;BME280;56311;50.298;8.514;2023-06-22T08:34:00;97760.0;;;27.0;77.4
69198;BME280;56311;50.298;8.514;2023-06-22T08:36:00;97760.0;;;27.0;76.8
69198;BME280;56311;50.298;8.514;2023-06-22T08:38:00;97760.0;;;27.1;74.2
69198;BME280;56311;50.298;8.514;2023-06-22T08:40:02;97760.0;;;27.3;69.4
69198;BME280;56311;50.298;8.514;2023-06-22T08:42:00;97760.0;;;27.3;69.8
69198;BME280;56311;50.298;8.514;2023-06-22T08:44:00;97760.0;;;27.2;69.2
69198;BME280;56311;50.298;8.514;2023-06-22T08:46:00;97750.0;;;27.2;71.9
69198;BME280;56311;50.298;8.514;2023-06-22T08:48:00;97760.0;;;27.4;70.4
69198;BME280;56311;50.298;8.514;2023-06-22T08:50:00;97760.0;;;27.6;68.9
69198;BME280;56311;50.298;8.514;2023-06-22T08:52:00;97750.0;;;27.6;70.6
69198;BME280;56311;50.298;8.514;2023-06-22T08:54:01;97750.0;;;27.2;70.6
69198;BME280;56311;50.298;8.514;2023-06-22T08:56:00;97750.0;;;27.4;69.9
69198;BME280;56311;50.298;8.514;2023-06-22T08:58:00;97750.0;;;27.2;70.0
69198;BME280;56311;50.298;8.514;2023-06-22T09:00:00;97740.0;;;27.4;69.8
69198;BME280;56311;50.298;8.514;2023-06-22T09:02:00;97740.0;;;27.7;69.2
69198;BME280;56311;50.298;8.514;2023-06-22T09:04:00;97740.0;;;27.7;67.8
69198;BME280;56311;50.298;8.514;2023-06-22T09:06:00;97740.0;;;27.7;66.8
69198;BME280;56311;50.298;8.514;2023-06-22T09:08:00;97750.0;;;27.9;67.2
69198;BME280;56311;50.298;8.514;2023-06-22T09:10:00;97740.0;;;28.0;67.2
69198;BME280;56311;50.298;8.514;2023-06-22T09:12:00;97740.0;;;27.9;68.2
69198;BME280;56311;50.298;8.514;2023-06-22T09:14:00;97740.0;;;27.8;67.6
69198;BME280;56311;50.298;8.514;2023-06-22T09:16:00;97730.0;;;27.8;65.0
69198;BME280;56311;50.298;8.514;2023-06-22T09:18:00;97730.0;;;28.1;65.9
69198;BME280;56311;50.298;8.514;2023-06-22T09:20:00;97740.0;;;28.2;65.7
69198;BME280;56311;50.298;8.514;2023-06-22T09:22:00;97740.0;;;28.2;65.2
69198;BME280;56311;50.298;8.514;2023-06-22T09:24:00;97730.0;;;28.1;63.9
69198;BME280;56311;50.298;8.514;2023-06-22T09:26:00;97730.0;;;28.2;65.6
69198;BME280;56311;50.298;8.514;2023-06-22T09:28:00;97730.0;;;28.3;65.2
69198;BME280;56311;50.298;8.514;2023-06-22T09:30:00;97720.0;;;28.1;66.3
69198;BME280;56311;50.298;8.514;2023-06-22T09:32:00;97720.0;;;27.9;67.1
69198;BME280;56311;50.298;8.514;2023-06-22T09:34:00;97720.0;;;28.2;66.4
69198;BME280;56311;50.298;8.514;2023-06-22T09:36:00;97720.0;;;28.0;67.0
69198;BME280;56311;50.298;8.514;2023-06-22T09:38:00;97720.0;;;28.1;66.4
69198;BME280;56311;50.298;8.514;2023-06-22T09:40:00;97710.0;;;28.4;67.9
69198;BME280;56311;50.298;8.514;2023-06-22T09:42:00;97710.0;;;28.7;66.7
69198;BME280;56311;50.298;8.514;2023-06-22T09:44:00;97710.0;;;29.1;64.3
69198;BME280;56311;50.298;8.514;2023-06-22T09:46:00;97700.0;;;29.2;62.4
69198;BME280;56311;50.298;8.514;2023-06-22T09:48:00;97700.0;;;29.1;63.7
69198;BME280;56311;50.298;8.514;2023-06-22T09:50:00;97700.0;;;28.7;63.9
69198;BME280;56311;50.298;8.514;2023-06-22T09:52:00;97700.0;;;28.3;64.3
69198;BME280;56311;50.298;8.514;2023-06-22T09:54:00;97700.0;;;28.2;64.3
69198;BME280;56311;50.298;8.514;2023-06-22T09:56:00;97700.0;;;28.1;67.5
69198;BME280;56311;50.298;8.514;2023-06-22T09:58:00;97710.0;;;28.0;65.6
69198;BME280;56311;50.298;8.514;2023-06-22T10:00:00;97700.0;;;28.3;66.9
69198;BME280;56311;50.298;8.514;2023-06-22T10:02:00;97700.0;;;28.4;66.9
69198;BME280;56311;50.298;8.514;2023-06-22T10:04:01;97700.0;;;28.4;65.1
69198;BME280;56311;50.298;8.514;2023-06-22T10:06:00;97700.0;;;28.5;66.4
69198;BME280;56311;50.298;8.514;2023-06-22T10:08:00;97680.0;;;28.5;66.8
69198;BME280;56311;50.298;8.514;2023-06-22T10:10:00;97690.0;;;28.2;65.5
69198;BME280;56311;50.298;8.514;2023-06-22T10:12:00;97680.0;;;28.2;67.0
69198;BME280;56311;50.298;8.514;2023-06-22T10:14:00;97680.0;;;28.3;66.5
69198;BME280;56311;50.298;8.514;2023-06-22T10:16:00;97670.0;;;28.5;65.4
69198;BME280;56311;50.298;8.514;2023-06-22T10:18:00;97660.0;;;28.7;65.9
69198;BME280;56311;50.298;8.514;2023-06-22T10:20:00;97660.0;;;28.8;65.8
69198;BME280;56311;50.298;8.514;2023-06-22T10:22:00;97660.0;;;28.8;64.6
69198;BME280;56311;50.298;8.514;2023-06-22T10:24:01;97660.0;;;29.0;63.6
69198;BME280;56311;50.298;8.514;2023-06-22T10:26:00;97660.0;;;29.5;65.7
69198;BME280;56311;50.298;8.514;2023-06-22T10:28:00;97650.0;;;29.3;63.5
69198;BME280;56311;50.298;8.514;2023-06-22T10:30:00;97650.0;;;29.2;64.8
69198;BME280;56311;50.298;8.514;2023-06-22T10:32:00;97640.0;;;28.7;64.2
69198;BME280;56311;50.298;8.514;2023-06-22T10:34:00;97640.0;;;29.0;65.6
69198;BME280;56311;50.298;8.514;2023-06-22T10:36:00;97640.0;;;29.2;65.2
69198;BME280;56311;50.298;8.514;2023-06-22T10:38:00;97640.0;;;29.3;62.2
69198;BME280;56311;50.298;8.514;2023-06-22T10:40:00;97640.0;;;29.6;62.0
69198;BME280;56311;50.298;8.514;2023-06-22T10:42:00;97630.0;;;29.7;62.4
69198;BME280;56311;50.298;8.514;2023-06-22T10:44:00;97630.0;;;29.9;60.9
69198;BME280;56311;50.298;8.514;2023-06-22T10:46:00;97620.0;;;29.9;59.0
69198;BME280;56311;50.298;8.514;2023-06-22T10:48:00;97620.0;;;29.9;60.4
69198;BME280;56311;50.298;8.514;2023-06-22T10:50:01;97610.0;;;29.6;58.3
69198;BME280;56311;50.298;8.514;2023-06-22T10:52:00;97610.0;;;30.0;57.7
69198;BME280;56311;50.298;8.514;2023-06-22T10:54:00;97610.0;;;30.5;57.0
69198;BME280;56311;50.298;8.514;2023-06-22T10:56:00;97590.0;;;30.3;58.9